Time;durP1;ratioP1;P1;durP2;ratioP2;P2;SDS_P1;SDS_P2;PMS_P1;PMS_P2;Temp;Humidity;BMP_temperature;BMP_pressure;BME280_temperature;BME280_humidity;BME280_pressure;Samples;Min_cycle;Max_cycle;Signal;HPM_P1;HPM_P2
2022/11/05 00:09:37;;;;;;;;;;;17.20;93.20;;;;;;5070874;28;19931;-70
2022/11/05 00:17:35;;;;;;;;;;;17.20;93.20;;;;;;5054095;28;19932;-70
2022/11/05 00:20:01;;;;;;;;;;;17.40;93.20;;;;;;5054945;28;19928;-70
2022/11/05 00:25:15;;;;;;;;;;;17.20;93.10;;;;;;5070180;28;20031;-70
2022/11/05 00:27:50;;;;;;;;;;;17.20;93.10;;;;;;5053235;28;19960;-70
2022/11/05 00:30:18;;;;;;;;;;;17.30;93.10;;;;;;5053275;28;19925;-66
2022/11/05 00:32:44;;;;;;;;;;;17.40;93.10;;;;;;5037839;28;19928;-70
2022/11/05 00:35:10;;;;;;;;;;;17.20;93.00;;;;;;5036870;28;19968;-69
2022/11/05 00:37:35;;;;;;;;;;;17.10;93.00;;;;;;5070024;28;19975;-70
2022/11/05 00:40:01;;;;;;;;;;;17.40;93.10;;;;;;5054513;28;19970;-69
2022/11/05 00:45:11;;;;;;;;;;;17.40;93.10;;;;;;5086901;28;19982;-70
2022/11/05 00:50:22;;;;;;;;;;;17.20;93.00;;;;;;5102144;28;19985;-70
2022/11/05 00:52:54;;;;;;;;;;;17.30;93.00;;;;;;5099824;28;19959;-69
2022/11/05 00:55:29;;;;;;;;;;;17.20;93.00;;;;;;5116742;28;19924;-71
2022/11/05 00:57:55;;;;;;;;;;;17.20;93.00;;;;;;5116266;28;19931;-70
2022/11/05 01:00:22;;;;;;;;;;;16.90;92.90;;;;;;5099015;28;19924;-70
2022/11/05 01:02:47;;;;;;;;;;;17.20;92.90;;;;;;5114835;28;19923;-70
2022/11/05 01:05:13;;;;;;;;;;;17.00;92.90;;;;;;5115466;28;20014;-70
2022/11/05 01:07:39;;;;;;;;;;;17.30;93.00;;;;;;5116200;28;20388;-70
2022/11/05 01:10:04;;;;;;;;;;;17.30;92.90;;;;;;5116036;28;19931;-70
2022/11/05 01:12:30;;;;;;;;;;;16.90;92.80;;;;;;5116074;28;19924;-70
2022/11/05 01:14:56;;;;;;;;;;;17.20;92.80;;;;;;5113353;28;19931;-70
2022/11/05 01:17:22;;;;;;;;;;;17.20;92.90;;;;;;5116737;28;20280;-70
2022/11/05 01:19:47;;;;;;;;;;;17.10;92.90;;;;;;5115836;28;19924;-70
2022/11/05 01:22:13;;;;;;;;;;;17.30;92.90;;;;;;5116532;28;19927;-70
2022/11/05 01:24:38;;;;;;;;;;;17.10;92.80;;;;;;5115543;28;19969;-70
2022/11/05 01:27:04;;;;;;;;;;;17.20;92.90;;;;;;5115189;28;19977;-70
2022/11/05 01:29:30;;;;;;;;;;;17.00;92.80;;;;;;5116244;28;19930;-70
2022/11/05 01:31:55;;;;;;;;;;;17.00;92.80;;;;;;5116089;28;20061;-70
2022/11/05 01:34:21;;;;;;;;;;;17.10;92.80;;;;;;5114730;28;20389;-70
2022/11/05 01:36:46;;;;;;;;;;;17.10;92.80;;;;;;5114159;28;19924;-70
2022/11/05 01:39:12;;;;;;;;;;;17.20;92.80;;;;;;5116614;28;20021;-70
2022/11/05 01:41:38;;;;;;;;;;;17.10;92.80;;;;;;5117163;28;20276;-70
2022/11/05 01:44:03;;;;;;;;;;;17.20;92.80;;;;;;5116168;28;19923;-70
2022/11/05 01:46:36;;;;;;;;;;;16.90;92.70;;;;;;5115171;28;20380;-70
2022/11/05 01:49:05;;;;;;;;;;;17.30;92.80;;;;;;5115354;28;20262;-69
2022/11/05 01:51:31;;;;;;;;;;;17.20;92.80;;;;;;5114903;28;20339;-69
2022/11/05 01:54:04;;;;;;;;;;;16.90;92.70;;;;;;5109014;28;19923;-69
2022/11/05 01:56:34;;;;;;;;;;;17.00;92.70;;;;;;5097561;28;19930;-70
2022/11/05 01:59:01;;;;;;;;;;;17.30;92.80;;;;;;5111801;28;20266;-70
2022/11/05 02:01:26;;;;;;;;;;;17.10;92.70;;;;;;5105358;28;19923;-70
2022/11/05 02:03:53;;;;;;;;;;;17.00;92.70;;;;;;5115130;28;19924;-70
2022/11/05 02:06:18;;;;;;;;;;;17.10;92.70;;;;;;5114443;28;19931;-70
2022/11/05 02:08:50;;;;;;;;;;;16.90;92.60;;;;;;5112793;28;19928;-70
2022/11/05 02:11:16;;;;;;;;;;;16.80;92.60;;;;;;5077840;28;19924;-70
2022/11/05 02:13:42;;;;;;;;;;;17.30;92.70;;;;;;5091263;28;19935;-69
2022/11/05 02:16:11;;;;;;;;;;;17.20;92.70;;;;;;5114383;28;19924;-70
2022/11/05 02:18:37;;;;;;;;;;;16.90;92.60;;;;;;5097922;28;19976;-69
2022/11/05 02:21:05;;;;;;;;;;;16.90;92.60;;;;;;5114846;28;19923;-69
2022/11/05 02:23:31;;;;;;;;;;;17.00;92.50;;;;;;5115117;28;20337;-69
2022/11/05 02:26:17;;;;;;;;;;;17.00;92.60;;;;;;5112174;28;19923;-70
2022/11/05 02:29:01;;;;;;;;;;;16.90;92.60;;;;;;5114299;28;19924;-70
2022/11/05 02:31:43;;;;;;;;;;;17.00;92.60;;;;;;5114905;28;20292;-70
2022/11/05 02:34:18;;;;;;;;;;;16.80;92.60;;;;;;5097170;28;19971;-70
2022/11/05 02:37:05;;;;;;;;;;;17.00;92.60;;;;;;5076083;28;19935;-70
2022/11/05 02:39:47;;;;;;;;;;;17.00;92.60;;;;;;5094236;28;19924;-70
2022/11/05 02:42:13;;;;;;;;;;;17.00;92.60;;;;;;5091792;28;19928;-70
2022/11/05 02:44:38;;;;;;;;;;;17.00;92.60;;;;;;5113613;28;19919;-70
2022/11/05 02:47:07;;;;;;;;;;;16.90;92.60;;;;;;5114352;28;19974;-70
2022/11/05 02:49:51;;;;;;;;;;;16.80;92.50;;;;;;5114223;28;20444;-70
2022/11/05 02:52:20;;;;;;;;;;;17.10;92.60;;;;;;5096841;28;19923;-70
2022/11/05 02:55:05;;;;;;;;;;;16.90;92.50;;;;;;5096812;28;19923;-70
2022/11/05 02:57:33;;;;;;;;;;;17.20;92.60;;;;;;5081711;28;19938;-70
2022/11/05 02:59:59;;;;;;;;;;;17.00;92.50;;;;;;5097133;28;19924;-71
2022/11/05 03:02:25;;;;;;;;;;;17.00;92.50;;;;;;5115866;28;20398;-70
2022/11/05 03:04:50;;;;;;;;;;;17.10;92.50;;;;;;5110741;28;19923;-70
2022/11/05 03:07:25;;;;;;;;;;;16.70;92.40;;;;;;5112942;28;19923;-70
2022/11/05 03:10:09;;;;;;;;;;;16.90;92.50;;;;;;5113719;28;19928;-70
2022/11/05 03:12:42;;;;;;;;;;;16.80;92.40;;;;;;5113804;28;20407;-69
2022/11/05 03:15:10;;;;;;;;;;;17.00;92.50;;;;;;5095967;28;19931;-69
2022/11/05 03:17:36;;;;;;;;;;;16.90;92.40;;;;;;5112446;28;20377;-69
2022/11/05 03:20:02;;;;;;;;;;;16.90;92.40;;;;;;5113449;28;19923;-70
2022/11/05 03:22:29;;;;;;;;;;;17.10;92.50;;;;;;5113881;28;19970;-69
2022/11/05 03:24:56;;;;;;;;;;;16.70;92.40;;;;;;5096283;28;20377;-70
2022/11/05 03:27:25;;;;;;;;;;;16.80;92.40;;;;;;5096132;28;19920;-70
2022/11/05 03:29:57;;;;;;;;;;;17.10;92.50;;;;;;5096373;28;20016;-70
2022/11/05 03:32:22;;;;;;;;;;;16.90;92.40;;;;;;5096864;28;19928;-70
2022/11/05 03:34:49;;;;;;;;;;;16.90;92.40;;;;;;5101768;28;19935;-70
2022/11/05 03:37:15;;;;;;;;;;;16.80;92.30;;;;;;5105852;28;20277;-70
2022/11/05 03:39:42;;;;;;;;;;;16.70;92.30;;;;;;5095789;28;20010;-70
2022/11/05 03:42:09;;;;;;;;;;;16.80;92.30;;;;;;5096401;28;19931;-70
2022/11/05 03:44:35;;;;;;;;;;;16.80;92.30;;;;;;5113645;28;19923;-69
2022/11/05 03:47:02;;;;;;;;;;;16.80;92.30;;;;;;5112588;28;19927;-70
2022/11/05 03:49:29;;;;;;;;;;;17.00;92.40;;;;;;5096316;28;20006;-69
2022/11/05 03:51:54;;;;;;;;;;;16.70;92.20;;;;;;5094893;28;19930;-69
2022/11/05 03:54:20;;;;;;;;;;;16.90;92.30;;;;;;5114257;28;19923;-70
2022/11/05 03:56:58;;;;;;;;;;;16.80;92.30;;;;;;5112552;28;19928;-70
2022/11/05 03:59:23;;;;;;;;;;;16.80;92.30;;;;;;5113022;28;19931;-71
2022/11/05 04:01:49;;;;;;;;;;;16.70;92.30;;;;;;5096398;28;19923;-70
2022/11/05 04:04:15;;;;;;;;;;;;;;;;;;5096640;28;19924;-70
2022/11/05 04:14:54;;;;;;;;;;;16.60;92.20;;;;;;5113323;28;19969;-70
2022/11/05 04:17:19;;;;;;;;;;;16.90;92.30;;;;;;5117241;28;19924;-70
2022/11/05 04:25:14;;;;;;;;;;;16.80;92.20;;;;;;5103644;28;19924;-70
2022/11/05 04:27:40;;;;;;;;;;;;;;;;;;5115432;28;19968;-70
2022/11/05 04:30:18;;;;;;;;;;;16.90;92.30;;;;;;5099475;28;19949;-70
2022/11/05 04:32:57;;;;;;;;;;;16.80;92.30;;;;;;5099150;28;19924;-70
2022/11/05 04:35:23;;;;;;;;;;;16.80;92.20;;;;;;5082279;28;19982;-70
2022/11/05 04:37:48;;;;;;;;;;;16.80;92.20;;;;;;5088344;28;19974;-70
2022/11/05 04:40:14;;;;;;;;;;;16.90;92.20;;;;;;5102217;28;19927;-70
2022/11/05 04:42:40;;;;;;;;;;;16.90;92.20;;;;;;5119119;28;20010;-70
2022/11/05 04:45:05;;;;;;;;;;;16.80;92.20;;;;;;5085540;28;19924;-70
2022/11/05 04:47:34;;;;;;;;;;;16.80;92.20;;;;;;5119717;27;19928;-69
2022/11/05 04:50:00;;;;;;;;;;;16.60;92.10;;;;;;5118857;28;20002;-70
2022/11/05 04:52:25;;;;;;;;;;;16.60;92.10;;;;;;5118929;28;20353;-70
2022/11/05 04:54:51;;;;;;;;;;;16.90;92.20;;;;;;5118843;28;19963;-70
2022/11/05 04:57:16;;;;;;;;;;;16.40;92.10;;;;;;5100820;28;20014;-67
2022/11/05 04:59:42;;;;;;;;;;;16.50;92.10;;;;;;5118865;28;20445;-67
2022/11/05 05:02:08;;;;;;;;;;;16.80;92.20;;;;;;5120810;28;20346;-69
2022/11/05 05:04:33;;;;;;;;;;;16.70;92.10;;;;;;5119252;28;19930;-70
2022/11/05 05:06:59;;;;;;;;;;;16.80;92.20;;;;;;5119531;28;20003;-70
2022/11/05 05:09:24;;;;;;;;;;;16.90;92.20;;;;;;5117209;28;20364;-70
2022/11/05 05:11:50;;;;;;;;;;;16.70;92.00;;;;;;5119207;28;20338;-70
2022/11/05 05:14:16;;;;;;;;;;;16.80;92.20;;;;;;5120205;28;19931;-70
2022/11/05 05:16:41;;;;;;;;;;;16.60;92.10;;;;;;5091652;28;19932;-70
2022/11/05 05:19:07;;;;;;;;;;;16.60;92.10;;;;;;5102730;28;19924;-70
2022/11/05 05:21:39;;;;;;;;;;;16.80;92.20;;;;;;5116585;28;19981;-70
2022/11/05 05:24:07;;;;;;;;;;;16.60;92.10;;;;;;5119440;28;20287;-70
2022/11/05 05:26:34;;;;;;;;;;;16.70;92.10;;;;;;5102241;28;19928;-70
2022/11/05 05:28:59;;;;;;;;;;;16.90;92.20;;;;;;5097515;28;19924;-70
2022/11/05 05:31:25;;;;;;;;;;;16.90;92.20;;;;;;5117347;28;19923;-69
2022/11/05 05:33:54;;;;;;;;;;;16.50;92.00;;;;;;5105303;28;20377;-70
2022/11/05 05:36:20;;;;;;;;;;;16.60;92.10;;;;;;5088573;28;19923;-70
2022/11/05 05:38:45;;;;;;;;;;;16.70;92.10;;;;;;5077175;28;19947;-70
2022/11/05 05:41:11;;;;;;;;;;;16.60;92.10;;;;;;5095230;28;19963;-70
2022/11/05 05:43:37;;;;;;;;;;;16.70;92.10;;;;;;5095512;28;20013;-70
2022/11/05 05:46:02;;;;;;;;;;;16.80;92.10;;;;;;5099916;28;19928;-69
2022/11/05 05:48:28;;;;;;;;;;;16.50;92.00;;;;;;5114472;28;19947;-69
2022/11/05 05:50:54;;;;;;;;;;;16.70;92.10;;;;;;5098285;28;19924;-69
2022/11/05 05:53:20;;;;;;;;;;;;;;;;;;5098944;28;19924;-69
2022/11/05 05:55:45;;;;;;;;;;;16.60;92.10;;;;;;5132514;27;19992;-70
2022/11/05 05:58:11;;;;;;;;;;;16.70;92.10;;;;;;5110032;28;19977;-70
2022/11/05 06:00:37;;;;;;;;;;;16.70;92.10;;;;;;5114267;28;19924;-70
2022/11/05 06:03:02;;;;;;;;;;;16.70;92.10;;;;;;5115219;28;19927;-69
2022/11/05 06:05:28;;;;;;;;;;;16.80;92.10;;;;;;5115244;28;19928;-69
2022/11/05 06:07:54;;;;;;;;;;;16.60;92.00;;;;;;5113862;28;19935;-69
2022/11/05 06:10:20;;;;;;;;;;;16.70;92.00;;;;;;5114170;28;20377;-67
2022/11/05 06:12:46;;;;;;;;;;;16.70;92.10;;;;;;5114950;28;19985;-67
2022/11/05 06:15:11;;;;;;;;;;;16.50;92.00;;;;;;5115035;28;20014;-67
2022/11/05 06:17:37;;;;;;;;;;;16.70;92.00;;;;;;5115174;28;19931;-68
2022/11/05 06:20:03;;;;;;;;;;;16.40;92.00;;;;;;5115981;28;19923;-66
2022/11/05 06:22:28;;;;;;;;;;;16.50;92.00;;;;;;5111082;28;19924;-68
2022/11/05 06:24:54;;;;;;;;;;;;;;;;;;5108065;28;20044;-66
2022/11/05 06:27:20;;;;;;;;;;;16.60;92.00;;;;;;5116294;28;19924;-67
2022/11/05 06:29:46;;;;;;;;;;;16.90;92.00;;;;;;5113289;28;19977;-67
2022/11/05 06:32:11;;;;;;;;;;;16.40;92.00;;;;;;5115905;28;19976;-70
2022/11/05 06:34:37;;;;;;;;;;;16.70;92.10;;;;;;5097973;28;19977;-70
2022/11/05 06:37:02;;;;;;;;;;;16.70;92.10;;;;;;5114551;28;19936;-69
2022/11/05 06:39:28;;;;;;;;;;;16.80;92.20;;;;;;5113061;28;19934;-70
2022/11/05 06:41:54;;;;;;;;;;;16.70;92.10;;;;;;5111618;28;20339;-70
2022/11/05 06:44:21;;;;;;;;;;;16.90;92.10;;;;;;5113776;28;19923;-70
2022/11/05 06:46:46;;;;;;;;;;;16.80;92.10;;;;;;5114324;28;20011;-71
2022/11/05 06:49:12;;;;;;;;;;;16.70;92.10;;;;;;5079012;28;19935;-70
2022/11/05 06:51:38;;;;;;;;;;;16.90;92.10;;;;;;5114189;28;19923;-70
2022/11/05 06:54:03;;;;;;;;;;;17.00;92.20;;;;;;5115633;28;19968;-71
2022/11/05 06:56:29;;;;;;;;;;;16.80;92.10;;;;;;5113256;28;19976;-71
2022/11/05 06:58:54;;;;;;;;;;;17.90;92.40;;;;;;5096519;28;19923;-71
2022/11/05 07:01:20;;;;;;;;;;;17.00;92.10;;;;;;5114130;28;20372;-71
2022/11/05 07:03:47;;;;;;;;;;;17.00;92.10;;;;;;5114395;28;20369;-70
2022/11/05 07:06:13;;;;;;;;;;;16.70;92.00;;;;;;5114052;28;19928;-71
2022/11/05 07:08:39;;;;;;;;;;;16.90;92.10;;;;;;5112281;27;19946;-71
2022/11/05 07:11:04;;;;;;;;;;;16.70;92.00;;;;;;5114974;28;19923;-71
2022/11/05 07:13:30;;;;;;;;;;;16.80;92.00;;;;;;5114275;28;20353;-71
2022/11/05 07:15:56;;;;;;;;;;;16.70;92.00;;;;;;5084376;28;19967;-71
2022/11/05 07:18:21;;;;;;;;;;;16.90;92.10;;;;;;5097509;28;19999;-71
2022/11/05 07:20:48;;;;;;;;;;;16.80;92.00;;;;;;5114413;28;19923;-71
2022/11/05 07:23:13;;;;;;;;;;;16.80;92.00;;;;;;5114007;28;19954;-71
2022/11/05 07:25:39;;;;;;;;;;;16.60;91.90;;;;;;5113910;28;19970;-71
2022/11/05 07:28:05;;;;;;;;;;;16.90;91.90;;;;;;5112717;28;20381;-71
2022/11/05 07:30:31;;;;;;;;;;;16.80;91.90;;;;;;5115106;28;19963;-71
2022/11/05 07:32:56;;;;;;;;;;;16.60;91.80;;;;;;5092368;28;20034;-70
2022/11/05 07:35:22;;;;;;;;;;;16.90;91.90;;;;;;5093143;28;20313;-70
2022/11/05 07:37:48;;;;;;;;;;;16.70;91.80;;;;;;5076665;28;19933;-69
2022/11/05 07:40:14;;;;;;;;;;;16.80;91.80;;;;;;5093365;28;19982;-68
2022/11/05 07:42:41;;;;;;;;;;;16.70;91.80;;;;;;5105508;28;19966;-72
2022/11/05 07:45:07;;;;;;;;;;;16.90;91.90;;;;;;5114949;28;19978;-70
2022/11/05 07:47:32;;;;;;;;;;;17.10;91.90;;;;;;5114898;28;19959;-70
2022/11/05 07:49:58;;;;;;;;;;;16.80;91.80;;;;;;5112656;28;20296;-70
2022/11/05 07:52:23;;;;;;;;;;;16.60;91.70;;;;;;5094556;28;20315;-70
2022/11/05 07:54:49;;;;;;;;;;;16.80;91.80;;;;;;5113091;28;19931;-70
2022/11/05 07:57:14;;;;;;;;;;;16.90;91.80;;;;;;5095423;28;19930;-71
2022/11/05 07:59:40;;;;;;;;;;;17.20;91.90;;;;;;5114701;28;19919;-71
2022/11/05 08:02:08;;;;;;;;;;;16.80;91.80;;;;;;5112206;28;20266;-70
2022/11/05 08:04:33;;;;;;;;;;;16.90;91.80;;;;;;5094928;28;20357;-70
2022/11/05 08:06:59;;;;;;;;;;;16.70;91.80;;;;;;5108851;28;20002;-67
2022/11/05 08:09:24;;;;;;;;;;;17.20;91.90;;;;;;5112806;28;20057;-67
2022/11/05 08:11:50;;;;;;;;;;;17.00;91.80;;;;;;5093199;28;20045;-66
2022/11/05 08:14:16;;;;;;;;;;;16.90;91.70;;;;;;5093274;28;20399;-66
2022/11/05 08:16:41;;;;;;;;;;;17.00;91.70;;;;;;5111584;28;20438;-70
2022/11/05 08:19:07;;;;;;;;;;;17.30;91.70;;;;;;5111922;28;19923;-67
2022/11/05 08:21:32;;;;;;;;;;;17.10;91.60;;;;;;5111671;28;19927;-67
2022/11/05 08:23:58;;;;;;;;;;;17.40;91.60;;;;;;5104095;28;19931;-67
2022/11/05 08:26:24;;;;;;;;;;;17.60;91.60;;;;;;5113141;28;19924;-70
2022/11/05 08:28:49;;;;;;;;;;;17.40;91.50;;;;;;5091348;28;20023;-68
2022/11/05 08:31:16;;;;;;;;;;;17.30;91.40;;;;;;5075612;28;19931;-68
2022/11/05 08:33:42;;;;;;;;;;;17.30;91.30;;;;;;5104438;28;19931;-67
2022/11/05 08:36:08;;;;;;;;;;;17.50;91.30;;;;;;5095910;28;20002;-67
2022/11/05 08:38:33;;;;;;;;;;;17.40;91.30;;;;;;5114243;28;20380;-66
2022/11/05 08:40:59;;;;;;;;;;;17.60;91.30;;;;;;5111652;28;20369;-66
2022/11/05 08:43:25;;;;;;;;;;;17.40;91.30;;;;;;5111988;28;20392;-66
2022/11/05 08:45:50;;;;;;;;;;;17.90;91.40;;;;;;5112996;28;19984;-67
2022/11/05 08:48:16;;;;;;;;;;;17.40;91.20;;;;;;5111272;28;20353;-67
2022/11/05 08:50:43;;;;;;;;;;;17.50;91.30;;;;;;5113341;28;19928;-67
2022/11/05 08:53:08;;;;;;;;;;;17.40;91.20;;;;;;5113163;28;20292;-66
2022/11/05 08:55:34;;;;;;;;;;;17.40;91.20;;;;;;5112585;28;19930;-66
2022/11/05 08:58:00;;;;;;;;;;;17.50;91.20;;;;;;5113287;28;19978;-66
2022/11/05 09:00:27;;;;;;;;;;;17.50;91.20;;;;;;5112052;28;19924;-65
2022/11/05 09:02:53;;;;;;;;;;;17.70;91.30;;;;;;5105081;28;20396;-66
2022/11/05 09:05:19;;;;;;;;;;;;;;;;;;5096081;28;19931;-67
2022/11/05 09:07:45;;;;;;;;;;;17.60;91.20;;;;;;5112909;28;19924;-67
2022/11/05 09:10:11;;;;;;;;;;;17.50;91.20;;;;;;5113307;28;19930;-67
2022/11/05 09:12:37;;;;;;;;;;;;;;;;;;5099568;28;20006;-72
2022/11/05 09:15:03;;;;;;;;;;;17.50;91.20;;;;;;5103537;28;20002;-67
2022/11/05 09:17:28;;;;;;;;;;;17.50;91.20;;;;;;5110640;28;19924;-66
2022/11/05 09:19:54;;;;;;;;;;;17.60;91.30;;;;;;5116055;28;19923;-67
2022/11/05 09:22:20;;;;;;;;;;;17.60;91.30;;;;;;5115843;28;20388;-68
2022/11/05 09:24:45;;;;;;;;;;;17.20;91.20;;;;;;5117219;28;19931;-67
2022/11/05 09:27:14;;;;;;;;;;;17.60;91.30;;;;;;5115697;28;19998;-68
2022/11/05 09:29:40;;;;;;;;;;;17.50;91.30;;;;;;5111327;28;20010;-69
2022/11/05 09:32:05;;;;;;;;;;;17.20;91.20;;;;;;5114076;28;20057;-69
2022/11/05 09:34:31;;;;;;;;;;;17.40;91.20;;;;;;5117308;28;19985;-69
2022/11/05 09:36:57;;;;;;;;;;;17.70;91.30;;;;;;5114516;28;19924;-70
2022/11/05 09:39:22;;;;;;;;;;;17.30;91.20;;;;;;5098879;28;20397;-70
2022/11/05 09:41:48;;;;;;;;;;;17.50;91.30;;;;;;5113700;28;19923;-67
2022/11/05 09:44:24;;;;;;;;;;;17.40;91.20;;;;;;5114204;28;19923;-70
2022/11/05 09:46:52;;;;;;;;;;;17.40;91.30;;;;;;5072109;28;20446;-70
2022/11/05 09:49:21;;;;;;;;;;;17.40;91.20;;;;;;5083338;28;19924;-70
2022/11/05 09:51:47;;;;;;;;;;;17.60;91.30;;;;;;5099099;28;19931;-69
2022/11/05 09:54:13;;;;;;;;;;;17.50;91.30;;;;;;5116360;28;20285;-69
2022/11/05 09:56:39;;;;;;;;;;;17.30;91.20;;;;;;5094072;28;19924;-70
2022/11/05 09:59:18;;;;;;;;;;;17.70;91.30;;;;;;5078092;28;20420;-70
2022/11/05 10:01:43;;;;;;;;;;;17.40;91.30;;;;;;5088079;28;19956;-69
2022/11/05 10:04:15;;;;;;;;;;;17.40;91.30;;;;;;5113410;28;20400;-69
2022/11/05 10:06:43;;;;;;;;;;;17.60;91.30;;;;;;5105719;28;20355;-70
2022/11/05 10:09:13;;;;;;;;;;;17.60;91.30;;;;;;5080169;28;20330;-69
2022/11/05 10:12:02;;;;;;;;;;;17.60;91.30;;;;;;5061244;28;20006;-68
2022/11/05 10:14:29;;;;;;;;;;;17.60;91.40;;;;;;5077508;28;19928;-70
2022/11/05 10:16:57;;;;;;;;;;;17.80;91.30;;;;;;5096425;28;19931;-70
2022/11/05 10:19:24;;;;;;;;;;;17.90;91.50;;;;;;5093373;28;20461;-68
2022/11/05 10:21:53;;;;;;;;;;;18.00;91.50;;;;;;5097575;28;19969;-69
2022/11/05 10:24:19;;;;;;;;;;;17.80;91.50;;;;;;5097529;28;19932;-70
2022/11/05 10:26:49;;;;;;;;;;;17.90;91.50;;;;;;5114016;28;19924;-68
2022/11/05 10:29:19;;;;;;;;;;;18.00;91.50;;;;;;5114605;28;19931;-69
2022/11/05 10:31:44;;;;;;;;;;;18.10;91.50;;;;;;5114987;28;20304;-67
2022/11/05 10:34:12;;;;;;;;;;;18.10;91.50;;;;;;5114625;28;19954;-69
2022/11/05 10:36:38;;;;;;;;;;;18.30;91.60;;;;;;5111890;28;19931;-67
2022/11/05 10:39:17;;;;;;;;;;;18.40;91.60;;;;;;5109254;28;19924;-68
2022/11/05 10:41:52;;;;;;;;;;;18.10;91.50;;;;;;5100840;28;19928;-67
2022/11/05 10:44:21;;;;;;;;;;;18.40;91.60;;;;;;5114855;28;20018;-67
2022/11/05 10:46:53;;;;;;;;;;;18.30;91.50;;;;;;5113702;28;20323;-69
2022/11/05 10:49:22;;;;;;;;;;;18.40;91.60;;;;;;5097204;28;19923;-67
2022/11/05 10:51:51;;;;;;;;;;;18.50;91.60;;;;;;5114258;28;20037;-68
2022/11/05 10:54:18;;;;;;;;;;;18.30;91.50;;;;;;5114204;28;19923;-67
2022/11/05 10:56:43;;;;;;;;;;;18.40;91.50;;;;;;5110660;28;19963;-69
2022/11/05 10:59:23;;;;;;;;;;;18.50;91.50;;;;;;5115691;28;19983;-69
2022/11/05 11:02:07;;;;;;;;;;;18.60;91.50;;;;;;5076876;28;19975;-69
2022/11/05 11:04:33;;;;;;;;;;;18.60;91.50;;;;;;5110776;28;19971;-68
2022/11/05 11:06:58;;;;;;;;;;;18.70;91.50;;;;;;5096425;28;20388;-68
2022/11/05 11:09:25;;;;;;;;;;;18.60;91.60;;;;;;5113991;28;20342;-68
2022/11/05 11:11:55;;;;;;;;;;;18.50;91.60;;;;;;5111778;28;20022;-69
2022/11/05 11:14:21;;;;;;;;;;;18.80;91.40;;;;;;5087507;28;20465;-69
2022/11/05 11:16:49;;;;;;;;;;;18.60;91.30;;;;;;5097464;28;20026;-69
2022/11/05 11:19:25;;;;;;;;;;;18.70;91.30;;;;;;5108608;28;19934;-68
2022/11/05 11:22:03;;;;;;;;;;;18.80;91.30;;;;;;5111597;28;19924;-67
2022/11/05 11:24:30;;;;;;;;;;;17.70;90.60;;;;;;5113724;28;19949;-68
2022/11/05 11:27:19;;;;;;;;;;;18.90;91.30;;;;;;5093920;28;19920;-69
2022/11/05 11:29:46;;;;;;;;;;;18.90;90.90;;;;;;5122998;27;20014;-68
2022/11/05 11:32:13;;;;;;;;;;;19.00;91.20;;;;;;5086049;28;19928;-68
2022/11/05 11:34:39;;;;;;;;;;;19.00;91.20;;;;;;5091373;28;19924;-69
2022/11/05 11:37:09;;;;;;;;;;;19.20;91.10;;;;;;5094820;28;19931;-68
2022/11/05 11:39:35;;;;;;;;;;;19.00;91.10;;;;;;5093386;28;20390;-68
2022/11/05 11:42:02;;;;;;;;;;;19.00;91.00;;;;;;5094238;28;19969;-70
2022/11/05 11:44:29;;;;;;;;;;;19.10;91.00;;;;;;5089443;28;20336;-69
2022/11/05 11:47:00;;;;;;;;;;;19.20;91.00;;;;;;5086377;28;20022;-68
2022/11/05 11:49:38;;;;;;;;;;;19.20;91.00;;;;;;5106423;28;19924;-69
2022/11/05 11:52:05;;;;;;;;;;;19.30;90.60;;;;;;5096599;28;19970;-68
2022/11/05 11:54:31;;;;;;;;;;;19.20;91.20;;;;;;5095486;28;20294;-69
2022/11/05 11:56:57;;;;;;;;;;;19.30;91.00;;;;;;5096240;28;19931;-68
2022/11/05 11:59:23;;;;;;;;;;;19.10;90.90;;;;;;5112317;28;19919;-68
2022/11/05 12:01:55;;;;;;;;;;;19.20;90.90;;;;;;5112585;28;19924;-68
2022/11/05 12:04:47;;;;;;;;;;;19.60;90.60;;;;;;5105998;28;19924;-67
2022/11/05 12:07:24;;;;;;;;;;;19.60;90.60;;;;;;5071629;28;20305;-68
2022/11/05 12:09:54;;;;;;;;;;;19.00;90.80;;;;;;5055104;28;19924;-68
2022/11/05 12:12:31;;;;;;;;;;;18.90;90.70;;;;;;5038439;28;19925;-68
2022/11/05 12:15:07;;;;;;;;;;;19.00;90.70;;;;;;5051748;28;19928;-68
2022/11/05 12:17:51;;;;;;;;;;;19.40;90.40;;;;;;5058461;28;20401;-70
2022/11/05 12:20:25;;;;;;;;;;;19.50;90.30;;;;;;5070184;28;19925;-68
2022/11/05 12:22:51;;;;;;;;;;;19.10;89.70;;;;;;5054019;28;19991;-68
2022/11/05 12:25:45;;;;;;;;;;;19.10;90.00;;;;;;5071430;28;19971;-68
2022/11/05 12:28:29;;;;;;;;;;;19.00;88.90;;;;;;5042025;28;19928;-68
2022/11/05 12:31:21;;;;;;;;;;;18.90;88.80;;;;;;5054255;28;20031;-68
2022/11/05 12:33:55;;;;;;;;;;;18.70;88.90;;;;;;5068285;28;19929;-69
2022/11/05 12:36:25;;;;;;;;;;;18.50;88.80;;;;;;5050888;28;19975;-68
2022/11/05 12:39:01;;;;;;;;;;;18.40;90.10;;;;;;5053854;28;19978;-70
2022/11/05 12:41:35;;;;;;;;;;;18.30;90.10;;;;;;5037876;28;20011;-70
2022/11/05 12:44:07;;;;;;;;;;;18.00;89.20;;;;;;5084955;27;20450;-70
2022/11/05 12:46:35;;;;;;;;;;;18.10;90.20;;;;;;5101424;28;19939;-67
2022/11/05 12:49:04;;;;;;;;;;;17.90;90.10;;;;;;5106231;28;20038;-67
2022/11/05 12:51:40;;;;;;;;;;;18.00;90.20;;;;;;5112229;28;20000;-70
2022/11/05 12:54:05;;;;;;;;;;;17.70;89.50;;;;;;5091569;28;19927;-68
2022/11/05 12:56:42;;;;;;;;;;;17.70;90.20;;;;;;5106921;28;20373;-68
2022/11/05 12:59:17;;;;;;;;;;;17.70;90.30;;;;;;5113080;28;20409;-69
2022/11/05 13:01:44;;;;;;;;;;;17.60;90.30;;;;;;5109507;28;19973;-68
2022/11/05 13:04:12;;;;;;;;;;;17.50;90.30;;;;;;5115547;28;19923;-68
2022/11/05 13:06:39;;;;;;;;;;;17.50;90.60;;;;;;5116722;27;19967;-68
2022/11/05 13:09:11;;;;;;;;;;;17.40;90.30;;;;;;5097871;28;19924;-67
2022/11/05 13:11:47;;;;;;;;;;;17.20;90.40;;;;;;5104694;28;19927;-68
2022/11/05 13:14:13;;;;;;;;;;;17.00;90.50;;;;;;5080181;28;19959;-69
2022/11/05 13:16:41;;;;;;;;;;;16.90;90.40;;;;;;5081020;28;19924;-68
2022/11/05 13:19:12;;;;;;;;;;;17.20;90.60;;;;;;5116139;28;19923;-69
2022/11/05 13:21:38;;;;;;;;;;;17.10;90.70;;;;;;5113603;28;20385;-69
2022/11/05 13:24:05;;;;;;;;;;;17.00;90.70;;;;;;5097753;28;19969;-70
2022/11/05 13:26:42;;;;;;;;;;;17.30;90.80;;;;;;5097568;28;19923;-70
2022/11/05 13:29:30;;;;;;;;;;;17.30;90.60;;;;;;5089872;28;19937;-69
2022/11/05 13:31:57;;;;;;;;;;;17.00;90.50;;;;;;5107045;28;19928;-69
2022/11/05 13:34:23;;;;;;;;;;;17.10;90.60;;;;;;5103914;28;20385;-70
2022/11/05 13:39:40;;;;;;;;;;;16.90;90.50;;;;;;5105588;28;19924;-70
2022/11/05 13:42:09;;;;;;;;;;;17.10;90.60;;;;;;5106012;28;20304;-67
2022/11/05 13:44:53;;;;;;;;;;;17.00;90.50;;;;;;5115744;28;19920;-68
2022/11/05 13:47:19;;;;;;;;;;;17.30;90.70;;;;;;5113360;28;19947;-68
2022/11/05 13:50:03;;;;;;;;;;;17.00;90.70;;;;;;5113432;28;20036;-68
2022/11/05 13:52:55;;;;;;;;;;;17.30;90.80;;;;;;5111096;28;19924;-70
2022/11/05 13:55:21;;;;;;;;;;;17.10;90.70;;;;;;5109344;28;19924;-69
2022/11/05 13:58:05;;;;;;;;;;;17.30;90.70;;;;;;5106821;28;19934;-68
2022/11/05 14:00:31;;;;;;;;;;;17.30;90.80;;;;;;5114675;28;19950;-68
2022/11/05 14:03:04;;;;;;;;;;;17.20;90.70;;;;;;5114401;28;19923;-70
2022/11/05 14:05:36;;;;;;;;;;;17.30;90.70;;;;;;5111042;28;19924;-67
2022/11/05 14:08:09;;;;;;;;;;;17.40;90.70;;;;;;5095236;28;20345;-69
2022/11/05 14:10:35;;;;;;;;;;;17.30;90.70;;;;;;5096047;28;19924;-67
2022/11/05 14:13:21;;;;;;;;;;;17.70;90.80;;;;;;5113546;28;20301;-69
2022/11/05 14:16:13;;;;;;;;;;;17.50;90.70;;;;;;5128484;27;19932;-68
2022/11/05 14:18:51;;;;;;;;;;;17.60;90.70;;;;;;5107150;28;20319;-69
2022/11/05 14:21:26;;;;;;;;;;;17.60;90.70;;;;;;5108363;28;19923;-67
2022/11/05 14:23:55;;;;;;;;;;;17.40;90.60;;;;;;5094699;28;19935;-68
2022/11/05 14:26:22;;;;;;;;;;;17.50;90.60;;;;;;5114413;28;19924;-69
2022/11/05 14:28:54;;;;;;;;;;;17.40;90.60;;;;;;5113396;28;19958;-68
2022/11/05 14:31:30;;;;;;;;;;;17.60;90.60;;;;;;5112158;28;19972;-70
2022/11/05 14:34:03;;;;;;;;;;;17.20;90.10;;;;;;5113652;28;19924;-68
2022/11/05 14:36:30;;;;;;;;;;;17.50;90.60;;;;;;5096430;28;19959;-70
2022/11/05 14:39:17;;;;;;;;;;;17.40;90.50;;;;;;5110249;28;19920;-68
2022/11/05 14:41:52;;;;;;;;;;;17.40;90.50;;;;;;5130550;27;20273;-69
2022/11/05 14:44:17;;;;;;;;;;;17.40;90.50;;;;;;5110363;28;19971;-69
2022/11/05 14:46:47;;;;;;;;;;;17.20;90.50;;;;;;5094260;28;20016;-68
2022/11/05 14:49:19;;;;;;;;;;;17.20;90.50;;;;;;5094338;28;20304;-69
2022/11/05 14:51:49;;;;;;;;;;;17.50;90.60;;;;;;5093795;28;19924;-69
2022/11/05 14:54:33;;;;;;;;;;;17.50;90.70;;;;;;5090566;28;19997;-68
2022/11/05 14:56:59;;;;;;;;;;;17.20;90.60;;;;;;5106832;28;19932;-69
2022/11/05 14:59:27;;;;;;;;;;;17.30;90.70;;;;;;5112034;28;19931;-68
2022/11/05 15:01:52;;;;;;;;;;;17.30;90.70;;;;;;5112570;28;19935;-69
2022/11/05 15:04:28;;;;;;;;;;;17.20;90.70;;;;;;5111697;28;19924;-68
2022/11/05 15:07:03;;;;;;;;;;;17.40;90.70;;;;;;5111682;28;19931;-69